createdAt,value
2024-04-01T00:00:47.656Z,20.24
2024-04-01T00:01:47.782Z,20.23
2024-04-01T00:02:47.893Z,20.23
2024-04-01T00:03:48.002Z,20.22
2024-04-01T00:04:48.110Z,20.23
2024-04-01T00:05:48.220Z,20.23
2024-04-01T00:06:48.289Z,20.23
2024-04-01T00:07:48.400Z,20.23
2024-04-01T00:08:48.506Z,20.22
2024-04-01T00:09:48.607Z,20.22
2024-04-01T00:10:48.682Z,20.22
2024-04-01T00:11:48.786Z,20.22
2024-04-01T00:12:48.896Z,20.22
2024-04-01T00:13:49.023Z,20.21
2024-04-01T00:14:49.099Z,20.22
2024-04-01T00:15:49.208Z,20.22
2024-04-01T00:16:49.319Z,20.22
2024-04-01T00:17:49.426Z,20.22
2024-04-01T00:18:49.512Z,20.22
2024-04-01T00:19:49.619Z,20.21
2024-04-01T00:20:49.717Z,20.20
2024-04-01T00:21:49.828Z,20.21
2024-04-01T00:22:49.937Z,20.21
2024-04-01T00:23:50.030Z,20.21
2024-04-01T00:24:50.181Z,20.21
2024-04-01T00:25:50.227Z,20.21
2024-04-01T00:26:50.332Z,20.21
2024-04-01T00:27:50.459Z,20.21
2024-04-01T00:28:50.601Z,20.20
2024-04-01T00:29:50.640Z,20.21
2024-04-01T00:30:50.754Z,20.21
2024-04-01T00:31:50.851Z,20.20
2024-04-01T00:32:50.962Z,20.20
2024-04-01T00:33:51.063Z,20.20
2024-04-01T00:34:53.969Z,20.20
2024-04-01T00:35:51.163Z,20.19
2024-04-01T00:36:51.165Z,20.19
2024-04-01T00:37:51.163Z,20.20
2024-04-01T00:38:51.164Z,20.20
2024-04-01T00:39:51.179Z,20.19
2024-04-01T00:40:51.155Z,20.19
2024-04-01T00:41:51.184Z,20.19
2024-04-01T00:42:51.177Z,20.19
2024-04-01T00:43:51.178Z,20.19
2024-04-01T00:44:51.171Z,20.19
2024-04-01T00:45:51.180Z,20.19
2024-04-01T00:46:51.187Z,20.20
2024-04-01T00:47:51.272Z,20.19
2024-04-01T00:48:51.371Z,20.18
2024-04-01T00:49:51.484Z,20.18
2024-04-01T00:50:51.560Z,20.18
2024-04-01T00:51:51.676Z,20.18
2024-04-01T00:52:51.771Z,20.17
2024-04-01T00:53:51.872Z,20.17
2024-04-01T00:54:51.943Z,20.17
2024-04-01T00:55:52.038Z,20.17
2024-04-01T00:56:52.146Z,20.17
2024-04-01T00:57:52.252Z,20.18
2024-04-01T00:58:52.353Z,20.17
2024-04-01T00:59:52.454Z,20.17
2024-04-01T01:00:52.552Z,20.16
2024-04-01T01:01:53.544Z,20.17
2024-04-01T01:02:52.709Z,20.17
2024-04-01T01:03:52.777Z,20.17
2024-04-01T01:04:52.813Z,20.17
2024-04-01T01:05:52.866Z,20.15
2024-04-01T01:06:52.933Z,20.16
2024-04-01T01:07:53.009Z,20.16
2024-04-01T01:08:53.044Z,20.15
2024-04-01T01:09:53.113Z,20.15
2024-04-01T01:10:53.155Z,20.15
2024-04-01T01:11:53.234Z,20.15
2024-04-01T01:12:53.327Z,20.15
2024-04-01T01:13:53.436Z,20.15
2024-04-01T01:14:53.541Z,20.15
2024-04-01T01:15:53.659Z,20.15
2024-04-01T01:16:53.746Z,20.15
2024-04-01T01:17:53.872Z,20.14
2024-04-01T01:18:53.961Z,20.14
2024-04-01T01:19:54.058Z,20.14
2024-04-01T01:20:54.158Z,20.14
2024-04-01T01:21:54.259Z,20.14
2024-04-01T01:22:54.360Z,20.14
2024-04-01T01:23:54.471Z,20.15
2024-04-01T01:24:54.549Z,20.15
2024-04-01T01:25:54.662Z,20.14
2024-04-01T01:26:54.771Z,20.14
2024-04-01T01:27:54.856Z,20.14
2024-04-01T01:28:54.961Z,20.14
2024-04-01T01:29:55.074Z,20.14
2024-04-01T01:30:55.183Z,20.13
2024-04-01T01:31:55.254Z,20.13
2024-04-01T01:32:55.363Z,20.13
2024-04-01T01:33:55.470Z,20.14
2024-04-01T01:34:55.576Z,20.14
2024-04-01T01:35:55.702Z,20.13
2024-04-01T01:36:55.792Z,20.13
2024-04-01T01:37:55.901Z,20.12
2024-04-01T01:38:55.980Z,20.13
2024-04-01T01:39:56.085Z,20.12
2024-04-01T01:40:56.192Z,20.12
2024-04-01T01:41:56.294Z,20.11
2024-04-01T01:42:56.394Z,20.12
2024-04-01T01:43:57.097Z,20.11
2024-04-01T01:44:56.594Z,20.11
2024-04-01T01:45:56.705Z,20.12
2024-04-01T01:46:56.809Z,20.12
2024-04-01T01:47:56.927Z,20.11
2024-04-01T01:48:57.054Z,20.12
2024-04-01T01:49:57.158Z,20.12
2024-04-01T01:50:57.242Z,20.12
2024-04-01T01:51:57.341Z,20.11
2024-04-01T01:52:57.437Z,20.11
2024-04-01T01:53:57.555Z,20.12
2024-04-01T01:54:57.665Z,20.12
2024-04-01T01:55:57.794Z,20.12
2024-04-01T01:56:57.961Z,20.11
2024-04-01T01:57:57.943Z,20.11
2024-04-01T01:58:59.067Z,20.11
2024-04-01T01:59:58.172Z,20.12
2024-04-01T02:00:58.252Z,20.11
2024-04-01T02:01:58.348Z,20.11
2024-04-01T02:02:58.486Z,20.11
2024-04-01T02:03:58.571Z,20.11
2024-04-01T02:04:58.678Z,20.11
2024-04-01T02:05:58.787Z,20.11
2024-04-01T02:06:58.896Z,20.10
2024-04-01T02:07:59.018Z,20.11
2024-04-01T02:08:59.113Z,20.10
2024-04-01T02:09:59.219Z,20.10
2024-04-01T02:10:59.330Z,20.10
2024-04-01T02:11:59.460Z,20.10
2024-04-01T02:12:59.567Z,20.10
2024-04-01T02:13:59.673Z,20.10
2024-04-01T02:14:59.765Z,20.10
2024-04-01T02:15:59.859Z,20.10
2024-04-01T02:16:59.962Z,20.09
2024-04-01T02:18:00.082Z,20.10
2024-04-01T02:19:00.189Z,20.09
2024-04-01T02:20:00.339Z,20.09
2024-04-01T02:21:00.455Z,20.09
2024-04-01T02:22:00.528Z,20.09
2024-04-01T02:23:05.651Z,20.09
2024-04-01T02:24:00.627Z,20.08
2024-04-01T02:25:00.615Z,20.08
2024-04-01T02:26:00.606Z,20.08
2024-04-01T02:27:00.618Z,20.09
2024-04-01T02:28:00.643Z,20.07
2024-04-01T02:29:00.632Z,20.08
2024-04-01T02:30:00.626Z,20.08
2024-04-01T02:31:00.626Z,20.08
2024-04-01T02:32:00.705Z,20.08
2024-04-01T02:33:00.818Z,20.08
2024-04-01T02:34:00.921Z,20.07
2024-04-01T02:35:01.051Z,20.08
2024-04-01T02:36:01.122Z,20.08
2024-04-01T02:37:01.222Z,20.08
2024-04-01T02:38:01.325Z,20.07
2024-04-01T02:39:01.430Z,20.07
2024-04-01T02:40:01.557Z,20.07
2024-04-01T02:41:01.685Z,20.08
2024-04-01T02:42:01.764Z,20.07
2024-04-01T02:43:01.881Z,20.08
2024-04-01T02:44:01.989Z,20.07
2024-04-01T02:45:02.091Z,20.06
2024-04-01T02:46:02.211Z,20.07
2024-04-01T02:47:02.322Z,20.06
2024-04-01T02:48:02.427Z,20.06
2024-04-01T02:49:02.535Z,20.07
2024-04-01T02:50:02.655Z,20.06
2024-04-01T02:51:02.758Z,20.06
2024-04-01T02:52:02.861Z,20.06
2024-04-01T02:53:02.994Z,20.06
2024-04-01T02:54:03.091Z,20.06
2024-04-01T02:55:03.192Z,20.05
2024-04-01T02:56:03.304Z,20.05
2024-04-01T02:57:03.418Z,20.05
2024-04-01T02:58:03.546Z,20.05
2024-04-01T02:59:03.651Z,20.05
2024-04-01T03:00:03.758Z,20.05
2024-04-01T03:01:03.917Z,20.05
2024-04-01T03:02:03.987Z,20.05
2024-04-01T03:03:04.118Z,20.05
2024-04-01T03:04:04.211Z,20.04
2024-04-01T03:05:04.340Z,20.05
2024-04-01T03:06:04.434Z,20.05
2024-04-01T03:07:04.543Z,20.05
2024-04-01T03:08:04.665Z,20.04
2024-04-01T03:09:04.788Z,20.05
2024-04-01T03:10:04.955Z,20.05
2024-04-01T03:11:04.993Z,20.05
2024-04-01T03:12:05.121Z,20.04
2024-04-01T03:13:05.244Z,20.04
2024-04-01T03:14:05.326Z,20.04
2024-04-01T03:15:05.433Z,20.05
2024-04-01T03:16:05.538Z,20.04
2024-04-01T03:17:05.656Z,20.04
2024-04-01T03:18:05.762Z,20.04
2024-04-01T03:19:05.877Z,20.04
2024-04-01T03:20:05.986Z,20.04
2024-04-01T03:21:06.092Z,20.04
2024-04-01T03:22:06.212Z,20.04
2024-04-01T03:23:06.312Z,20.04
2024-04-01T03:24:06.427Z,20.04
2024-04-01T03:25:06.519Z,20.04
2024-04-01T03:26:06.634Z,20.03
2024-04-01T03:27:06.763Z,20.04
2024-04-01T03:28:06.852Z,20.03
2024-04-01T03:29:06.948Z,20.03
2024-04-01T03:30:07.069Z,20.03
2024-04-01T03:31:07.185Z,20.03
2024-04-01T03:32:07.299Z,20.03
2024-04-01T03:33:08.656Z,20.03
2024-04-01T03:34:07.442Z,20.03
2024-04-01T03:35:07.509Z,20.03
2024-04-01T03:36:07.591Z,20.03
2024-04-01T03:37:07.690Z,20.02
2024-04-01T03:38:07.824Z,20.03
2024-04-01T03:39:07.913Z,20.02
2024-04-01T03:40:08.034Z,20.02
2024-04-01T03:41:08.150Z,20.02
2024-04-01T03:42:08.236Z,20.02
2024-04-01T03:43:08.356Z,20.03
2024-04-01T03:44:08.477Z,20.01
2024-04-01T03:45:08.581Z,20.02
2024-04-01T03:46:08.676Z,20.02
2024-04-01T03:47:08.814Z,20.02
2024-04-01T03:48:08.903Z,20.01
2024-04-01T03:49:09.021Z,20.01
2024-04-01T03:50:09.143Z,20.02
2024-04-01T03:51:09.211Z,20.02
2024-04-01T03:52:09.357Z,20.01
2024-04-01T03:53:09.443Z,20.02
2024-04-01T03:54:09.596Z,20.02
2024-04-01T03:55:09.665Z,20.02
2024-04-01T03:56:09.751Z,20.02
2024-04-01T03:57:09.868Z,20.01
2024-04-01T03:58:09.968Z,20.01
2024-04-01T03:59:10.078Z,20.01
2024-04-01T04:00:10.195Z,20.01
2024-04-01T04:01:10.324Z,20.01
2024-04-01T04:02:10.406Z,20.01
2024-04-01T04:03:10.528Z,20.01
2024-04-01T04:04:10.619Z,20.01
2024-04-01T04:05:10.731Z,20.01
2024-04-01T04:06:10.832Z,20.01
2024-04-01T04:07:10.939Z,20.01
2024-04-01T04:08:11.042Z,20.01
2024-04-01T04:09:11.153Z,20.00
2024-04-01T04:10:11.255Z,20.00
2024-04-01T04:11:11.411Z,19.99
2024-04-01T04:12:11.462Z,20.00
2024-04-01T04:13:11.565Z,20.00
2024-04-01T04:14:11.670Z,20.00
2024-04-01T04:15:11.782Z,20.00
2024-04-01T04:16:11.886Z,20.00
2024-04-01T04:17:11.997Z,20.00
2024-04-01T04:18:12.170Z,20.00
2024-04-01T04:19:12.221Z,20.00
2024-04-01T04:20:12.327Z,20.00
2024-04-01T04:21:12.430Z,19.99
2024-04-01T04:22:12.521Z,20.00
2024-04-01T04:23:12.623Z,20.00
2024-04-01T04:24:12.742Z,19.99
2024-04-01T04:25:12.868Z,19.99
2024-04-01T04:26:12.944Z,19.99
2024-04-01T04:27:13.084Z,19.99
2024-04-01T04:28:13.164Z,19.99
2024-04-01T04:29:14.120Z,19.99
2024-04-01T04:30:13.397Z,19.99
2024-04-01T04:31:13.522Z,19.98
2024-04-01T04:32:13.595Z,19.98
2024-04-01T04:33:13.708Z,19.99
2024-04-01T04:34:20.951Z,19.96
2024-04-01T04:35:20.966Z,19.97
2024-04-01T04:36:20.971Z,19.97
2024-04-01T04:37:20.968Z,19.97
2024-04-01T04:38:20.961Z,19.98
2024-04-01T04:39:20.954Z,19.97
2024-04-01T04:40:20.980Z,19.98
2024-04-01T04:41:20.969Z,19.97
2024-04-01T04:42:20.981Z,19.98
2024-04-01T04:43:20.977Z,19.98
2024-04-01T04:44:20.979Z,19.98
2024-04-01T04:45:20.962Z,19.98
2024-04-01T04:46:20.998Z,19.97
2024-04-01T04:47:21.006Z,19.97
2024-04-01T04:48:21.023Z,19.97
2024-04-01T04:49:21.010Z,19.98
2024-04-01T04:50:21.041Z,19.98
2024-04-01T04:51:21.010Z,19.97
2024-04-01T04:52:22.917Z,19.97
2024-04-01T04:53:21.018Z,19.97
2024-04-01T04:54:21.015Z,19.97
2024-04-01T04:55:21.002Z,19.97
2024-04-01T04:56:21.067Z,19.97
2024-04-01T04:57:21.148Z,19.97
2024-04-01T04:58:21.249Z,19.97
2024-04-01T04:59:21.369Z,19.97
2024-04-01T05:00:21.462Z,19.97
2024-04-01T05:01:21.580Z,19.97
2024-04-01T05:02:21.684Z,19.97
2024-04-01T05:03:21.810Z,19.97
2024-04-01T05:04:21.897Z,19.97
2024-04-01T05:05:22.034Z,19.97
2024-04-01T05:06:22.147Z,19.97
2024-04-01T05:07:22.243Z,19.97
2024-04-01T05:08:22.348Z,19.97
2024-04-01T05:09:22.454Z,19.97
2024-04-01T05:10:22.570Z,19.97
2024-04-01T05:11:22.709Z,19.97
2024-04-01T05:12:22.806Z,19.96
2024-04-01T05:13:22.923Z,19.97
2024-04-01T05:14:23.035Z,19.97
2024-04-01T05:15:23.140Z,19.97
2024-04-01T05:16:23.259Z,19.97
2024-04-01T05:17:23.365Z,19.97
2024-04-01T05:18:23.462Z,19.96
2024-04-01T05:19:23.590Z,19.97
2024-04-01T05:20:23.688Z,19.97
2024-04-01T05:21:23.802Z,19.97
2024-04-01T05:22:36.045Z,19.97
2024-04-01T05:23:23.911Z,19.95
2024-04-01T05:24:23.907Z,19.95
2024-04-01T05:25:23.902Z,19.96
2024-04-01T05:26:23.907Z,19.96
2024-04-01T05:27:23.905Z,19.97
2024-04-01T05:28:23.912Z,19.97
2024-04-01T05:29:23.924Z,19.96
2024-04-01T05:30:23.914Z,19.96
2024-04-01T05:31:23.900Z,19.96
2024-04-01T05:32:23.904Z,19.97
2024-04-01T05:33:23.911Z,19.97
2024-04-01T05:34:23.916Z,19.98
2024-04-01T05:35:23.957Z,19.97
2024-04-01T05:36:23.966Z,19.98
2024-04-01T05:37:23.947Z,19.97
2024-04-01T05:38:23.952Z,19.98
2024-04-01T05:39:23.948Z,19.98
2024-04-01T05:40:23.960Z,19.98
2024-04-01T05:41:23.952Z,19.98
2024-04-01T05:42:23.994Z,19.98
2024-04-01T05:43:23.974Z,19.98
2024-04-01T05:44:23.950Z,19.98
2024-04-01T05:45:23.953Z,19.99
2024-04-01T05:46:23.961Z,19.99
2024-04-01T05:47:24.002Z,19.99
2024-04-01T05:48:23.974Z,19.99
2024-04-01T05:49:23.959Z,19.98
2024-04-01T05:50:23.955Z,19.99
2024-04-01T05:51:23.999Z,19.98
2024-04-01T05:52:24.011Z,19.98
2024-04-01T05:53:24.915Z,19.99
2024-04-01T05:54:24.025Z,19.98
2024-04-01T05:55:24.027Z,19.99
2024-04-01T05:56:24.045Z,19.99
2024-04-01T05:57:24.015Z,19.99
2024-04-01T05:58:24.026Z,20.00
2024-04-01T05:59:24.023Z,19.99
2024-04-01T06:00:24.023Z,19.99
2024-04-01T06:01:24.027Z,19.99
2024-04-01T06:02:24.035Z,20.00
2024-04-01T06:03:24.090Z,20.00
2024-04-01T06:04:24.188Z,19.99
2024-04-01T06:05:24.320Z,20.00
2024-04-01T06:06:24.419Z,20.00
2024-04-01T06:07:24.517Z,20.00
2024-04-01T06:08:24.651Z,20.00
2024-04-01T06:09:24.736Z,20.01
2024-04-01T06:10:24.840Z,20.01
2024-04-01T06:11:24.955Z,20.00
2024-04-01T06:12:25.077Z,20.02
2024-04-01T06:13:25.180Z,20.01
2024-04-01T06:14:26.863Z,20.01
2024-04-01T06:15:25.279Z,20.01
2024-04-01T06:16:25.264Z,20.01
2024-04-01T06:17:25.267Z,20.01
2024-04-01T06:18:25.286Z,20.00
2024-04-01T06:19:25.279Z,20.01
2024-04-01T06:20:25.297Z,20.01
2024-04-01T06:21:25.300Z,20.01
2024-04-01T06:22:25.291Z,20.01
2024-04-01T06:23:25.284Z,20.00
2024-04-01T06:24:25.282Z,20.01
2024-04-01T06:25:25.287Z,20.01
2024-04-01T06:26:25.286Z,20.00
2024-04-01T06:27:25.281Z,20.01
2024-04-01T06:28:25.276Z,20.01
2024-04-01T06:29:25.274Z,20.01
2024-04-01T06:30:25.303Z,20.01
2024-04-01T06:31:25.290Z,20.01
2024-04-01T06:32:25.299Z,20.01
2024-04-01T06:33:25.285Z,20.01
2024-04-01T06:34:25.314Z,20.02
2024-04-01T06:35:25.318Z,20.01
2024-04-01T06:36:25.328Z,20.02
2024-04-01T06:37:25.331Z,20.02
2024-04-01T06:38:25.339Z,20.02
2024-04-01T06:39:25.319Z,20.02
2024-04-01T06:40:25.316Z,20.02
2024-04-01T06:41:25.324Z,20.02
2024-04-01T06:42:25.326Z,20.02
2024-04-01T06:43:25.343Z,20.02
2024-04-01T06:44:25.318Z,20.01
2024-04-01T06:45:25.328Z,20.02
2024-04-01T06:46:25.320Z,20.01
2024-04-01T06:47:25.371Z,20.01
2024-04-01T06:48:31.369Z,20.01
2024-04-01T06:49:25.448Z,20.00
2024-04-01T06:50:25.441Z,20.00
2024-04-01T06:51:25.438Z,20.00
2024-04-01T06:52:25.429Z,20.00
2024-04-01T06:53:35.490Z,19.99
2024-04-01T06:54:25.445Z,19.99
2024-04-01T06:55:25.452Z,19.99
2024-04-01T06:56:25.485Z,20.00
2024-04-01T06:57:25.471Z,20.00
2024-04-01T06:58:27.982Z,20.00
2024-04-01T06:59:25.452Z,19.99
2024-04-01T07:00:25.454Z,20.01
2024-04-01T07:01:25.457Z,20.00
2024-04-01T07:02:25.465Z,20.01
2024-04-01T07:03:25.476Z,20.00
2024-04-01T07:04:25.477Z,20.00
2024-04-01T07:05:25.465Z,20.01
2024-04-01T07:06:25.458Z,20.01
2024-04-01T07:07:25.466Z,20.01
2024-04-01T07:08:25.479Z,20.01
2024-04-01T07:09:25.518Z,20.01
2024-04-01T07:10:25.620Z,20.01
2024-04-01T07:11:25.737Z,20.01
2024-04-01T07:12:25.832Z,20.02
2024-04-01T07:13:25.951Z,20.01
2024-04-01T07:14:26.057Z,20.02
2024-04-01T07:15:26.179Z,20.01
2024-04-01T07:16:26.416Z,20.02
2024-04-01T07:17:26.404Z,20.02
2024-04-01T07:18:26.500Z,20.02
2024-04-01T07:19:26.597Z,20.02
2024-04-01T07:20:26.705Z,20.02
2024-04-01T07:21:27.584Z,20.02
2024-04-01T07:22:26.862Z,20.02
2024-04-01T07:23:26.935Z,20.02
2024-04-01T07:24:26.975Z,20.02
2024-04-01T07:25:27.032Z,20.02
2024-04-01T07:26:27.081Z,20.02
2024-04-01T07:27:27.136Z,20.02
2024-04-01T07:28:27.178Z,20.02
2024-04-01T07:29:27.226Z,20.02
2024-04-01T07:30:27.293Z,20.02
2024-04-01T07:31:27.447Z,20.02
2024-04-01T07:32:27.482Z,20.02
2024-04-01T07:33:27.552Z,20.02
2024-04-01T07:34:27.669Z,20.02
2024-04-01T07:35:27.827Z,20.02
2024-04-01T07:36:27.880Z,20.01
2024-04-01T07:37:28.008Z,20.01
2024-04-01T07:38:28.106Z,20.02
2024-04-01T07:39:28.217Z,20.01
2024-04-01T07:40:28.326Z,20.01
2024-04-01T07:41:28.435Z,20.01
2024-04-01T07:42:28.620Z,20.01
2024-04-01T07:43:28.716Z,20.02
2024-04-01T07:44:28.781Z,20.02
2024-04-01T07:45:28.878Z,20.02
2024-04-01T07:46:28.998Z,20.01
2024-04-01T07:47:29.112Z,20.02
2024-04-01T07:48:29.224Z,20.01
2024-04-01T07:49:29.323Z,20.01
2024-04-01T07:50:29.447Z,20.01
2024-04-01T07:51:29.555Z,20.02
2024-04-01T07:52:29.635Z,20.01
2024-04-01T07:53:29.768Z,20.01
2024-04-01T07:54:29.888Z,20.01
2024-04-01T07:55:29.984Z,20.01
2024-04-01T07:56:30.091Z,20.01
2024-04-01T07:57:30.204Z,20.01
2024-04-01T07:58:30.287Z,20.01
2024-04-01T07:59:30.408Z,20.02
2024-04-01T08:00:30.597Z,20.01
2024-04-01T08:01:30.637Z,20.01
2024-04-01T08:02:30.728Z,20.01
2024-04-01T08:03:30.830Z,20.02
2024-04-01T08:04:30.969Z,20.01
2024-04-01T08:05:31.060Z,20.01
2024-04-01T08:06:31.157Z,20.01
2024-04-01T08:07:31.267Z,20.01
2024-04-01T08:08:31.381Z,20.01
2024-04-01T08:09:31.510Z,20.02
2024-04-01T08:10:31.607Z,20.02
2024-04-01T08:11:31.726Z,20.02
2024-04-01T08:12:31.843Z,20.01
2024-04-01T08:13:31.963Z,20.01
2024-04-01T08:14:32.059Z,20.01
2024-04-01T08:15:32.182Z,20.01
2024-04-01T08:16:32.277Z,20.01
2024-04-01T08:17:32.390Z,20.01
2024-04-01T08:18:32.507Z,20.01
2024-04-01T08:19:32.629Z,20.01
2024-04-01T08:20:32.724Z,20.01
2024-04-01T08:21:32.850Z,20.01
2024-04-01T08:22:32.986Z,20.01
2024-04-01T08:23:33.074Z,20.00
2024-04-01T08:24:33.181Z,20.01
2024-04-01T08:25:33.343Z,20.01
2024-04-01T08:26:33.425Z,20.00
2024-04-01T08:27:33.516Z,20.01
2024-04-01T08:28:35.295Z,20.00
2024-04-01T08:29:33.712Z,20.01
2024-04-01T08:30:33.765Z,20.01
2024-04-01T08:31:33.819Z,20.00
2024-04-01T08:32:33.910Z,20.00
2024-04-01T08:33:33.929Z,20.00
2024-04-01T08:34:33.991Z,20.01
2024-04-01T08:35:34.039Z,20.00
2024-04-01T08:36:34.117Z,20.00
2024-04-01T08:37:34.231Z,20.00
2024-04-01T08:38:34.330Z,20.00
2024-04-01T08:39:34.449Z,20.00
2024-04-01T08:40:34.551Z,20.01
2024-04-01T08:41:34.641Z,20.00
2024-04-01T08:42:34.784Z,20.00
2024-04-01T08:43:34.874Z,20.00
2024-04-01T08:44:34.994Z,20.00
2024-04-01T08:45:35.106Z,20.00
2024-04-01T08:46:35.223Z,20.00
2024-04-01T08:47:35.323Z,19.99
2024-04-01T08:48:35.458Z,20.00
2024-04-01T08:49:35.624Z,20.00
2024-04-01T08:50:35.658Z,20.00
2024-04-01T08:51:35.785Z,20.00
2024-04-01T08:52:35.925Z,20.00
2024-04-01T08:53:36.035Z,20.00
2024-04-01T08:54:36.121Z,19.99
2024-04-01T08:55:36.215Z,19.99
2024-04-01T08:56:36.347Z,19.99
2024-04-01T08:57:36.445Z,19.99
2024-04-01T08:58:36.630Z,19.99
2024-04-01T08:59:36.697Z,19.99
2024-04-01T09:00:36.809Z,20.00
2024-04-01T09:01:36.947Z,19.99
2024-04-01T09:02:37.034Z,19.99
2024-04-01T09:03:47.190Z,20.00
2024-04-01T09:04:37.150Z,19.97
2024-04-01T09:05:37.124Z,19.98
2024-04-01T09:06:37.132Z,19.99
2024-04-01T09:07:37.159Z,19.98
2024-04-01T09:08:37.141Z,19.99
2024-04-01T09:09:37.141Z,19.98
2024-04-01T09:10:37.168Z,20.00
2024-04-01T09:11:37.143Z,19.98
2024-04-01T09:12:37.128Z,19.99
2024-04-01T09:13:37.151Z,19.99
2024-04-01T09:14:37.143Z,19.99
2024-04-01T09:15:37.163Z,19.99
2024-04-01T09:16:37.210Z,19.99
2024-04-01T09:17:37.132Z,20.00
2024-04-01T09:18:38.105Z,19.99
2024-04-01T09:19:37.144Z,20.00
2024-04-01T09:20:37.153Z,20.00
2024-04-01T09:21:37.173Z,19.99
2024-04-01T09:22:37.172Z,20.00
2024-04-01T09:23:37.207Z,20.00
2024-04-01T09:24:37.184Z,19.99
2024-04-01T09:25:37.231Z,19.99
2024-04-01T09:26:37.216Z,19.99
2024-04-01T09:27:37.195Z,20.00
2024-04-01T09:28:42.322Z,20.00
2024-04-01T09:29:37.246Z,19.99
2024-04-01T09:30:37.264Z,19.99
2024-04-01T09:31:37.253Z,20.00
2024-04-01T09:32:37.265Z,19.99
2024-04-01T09:33:37.293Z,19.99
2024-04-01T09:34:37.278Z,20.00
2024-04-01T09:35:37.285Z,19.99
2024-04-01T09:36:37.288Z,19.99
2024-04-01T09:37:38.186Z,20.00
2024-04-01T09:38:37.480Z,20.00
2024-04-01T09:39:37.451Z,20.00
2024-04-01T09:40:37.510Z,20.00
2024-04-01T09:41:37.542Z,20.00
2024-04-01T09:42:37.605Z,20.00
2024-04-01T09:43:45.954Z,20.00
2024-04-01T09:44:38.675Z,20.00
2024-04-01T09:45:37.667Z,20.00
2024-04-01T09:46:37.671Z,20.00
2024-04-01T09:47:37.673Z,20.00
2024-04-01T09:48:42.729Z,20.01
2024-04-01T09:49:37.704Z,20.00
2024-04-01T09:50:37.708Z,20.00
2024-04-01T09:51:37.684Z,20.00
2024-04-01T09:52:37.745Z,20.00
2024-04-01T09:53:37.751Z,20.00
2024-04-01T09:54:37.758Z,20.01
2024-04-01T09:55:37.771Z,20.00
2024-04-01T09:56:37.751Z,20.01
2024-04-01T09:57:37.807Z,20.01
2024-04-01T09:58:37.924Z,20.01
2024-04-01T09:59:38.040Z,20.01
2024-04-01T10:00:38.142Z,20.01
2024-04-01T10:01:38.258Z,20.01
2024-04-01T10:02:38.379Z,20.01
2024-04-01T10:03:39.479Z,20.02
2024-04-01T10:04:38.554Z,20.01
2024-04-01T10:05:38.628Z,20.01
2024-04-01T10:06:38.665Z,20.01
2024-04-01T10:07:38.726Z,20.01
2024-04-01T10:08:38.757Z,20.01
2024-04-01T10:09:38.811Z,20.01
2024-04-01T10:10:38.897Z,20.01
2024-04-01T10:11:38.978Z,20.01
2024-04-01T10:12:39.090Z,20.02
2024-04-01T10:13:39.209Z,20.01
2024-04-01T10:14:39.325Z,20.02
2024-04-01T10:15:39.437Z,20.02
2024-04-01T10:16:39.552Z,20.01
2024-04-01T10:17:39.655Z,20.01
2024-04-01T10:18:39.773Z,20.02
2024-04-01T10:19:39.876Z,20.02
2024-04-01T10:20:39.984Z,20.01
2024-04-01T10:21:40.175Z,20.01
2024-04-01T10:22:40.239Z,20.01
2024-04-01T10:23:40.345Z,20.01
2024-04-01T10:24:40.480Z,20.01
2024-04-01T10:25:40.576Z,20.01
2024-04-01T10:26:40.666Z,20.01
2024-04-01T10:27:40.878Z,20.02
2024-04-01T10:28:40.967Z,20.02
2024-04-01T10:29:41.011Z,20.01
2024-04-01T10:30:41.117Z,20.01
2024-04-01T10:31:41.283Z,20.02
2024-04-01T10:32:41.360Z,20.01
2024-04-01T10:33:41.465Z,20.02
2024-04-01T10:34:45.598Z,20.01
2024-04-01T10:35:41.594Z,20.01
2024-04-01T10:36:41.592Z,20.01
2024-04-01T10:37:41.703Z,20.01
2024-04-01T10:38:41.614Z,20.01
2024-04-01T10:39:41.578Z,20.02
2024-04-01T10:40:41.598Z,20.01
2024-04-01T10:41:43.048Z,20.02
2024-04-01T10:42:41.618Z,20.02
2024-04-01T10:43:41.645Z,20.02
2024-04-01T10:44:41.615Z,20.02
2024-04-01T10:45:41.641Z,20.01
2024-04-01T10:46:41.636Z,20.02
2024-04-01T10:47:41.603Z,20.02
2024-04-01T10:48:41.602Z,20.02
2024-04-01T10:49:41.635Z,20.02
2024-04-01T10:50:41.609Z,20.02
2024-04-01T10:51:41.615Z,20.02
2024-04-01T10:52:41.656Z,20.02
2024-04-01T10:53:41.606Z,20.02
2024-04-01T10:54:41.605Z,20.03
2024-04-01T10:55:56.224Z,20.00
2024-04-01T10:56:56.224Z,20.02
2024-04-01T10:57:56.206Z,20.02
2024-04-01T10:58:56.222Z,20.02
2024-04-01T10:59:56.218Z,20.02
2024-04-01T11:00:56.291Z,20.02
2024-04-01T11:01:56.234Z,20.03
2024-04-01T11:02:56.206Z,20.03
2024-04-01T11:03:56.224Z,20.03
2024-04-01T11:04:56.217Z,20.03
2024-04-01T11:05:56.226Z,20.03
2024-04-01T11:06:56.230Z,20.03
2024-04-01T11:07:56.240Z,20.03
2024-04-01T11:09:06.246Z,20.03
2024-04-01T11:09:56.237Z,20.02
2024-04-01T11:10:56.222Z,20.03
2024-04-01T11:11:56.227Z,20.03
2024-04-01T11:12:56.229Z,20.03
2024-04-01T11:13:56.234Z,20.03
2024-04-01T11:14:56.216Z,20.03
2024-04-01T11:15:56.219Z,20.03
2024-04-01T11:16:56.279Z,20.03
2024-04-01T11:17:56.226Z,20.03
2024-04-01T11:18:56.247Z,20.03
2024-04-01T11:19:56.237Z,20.03
2024-04-01T11:20:56.230Z,20.03
2024-04-01T11:21:56.218Z,20.03
2024-04-01T11:22:56.233Z,20.03
2024-04-01T11:23:56.234Z,20.04
2024-04-01T11:24:56.220Z,20.03
2024-04-01T11:25:56.218Z,20.03
2024-04-01T11:26:56.224Z,20.03
2024-04-01T11:27:56.227Z,20.03
2024-04-01T11:28:56.239Z,20.03
2024-04-01T11:29:56.238Z,20.03
2024-04-01T11:30:56.230Z,20.03
2024-04-01T11:31:56.235Z,20.03
2024-04-01T11:32:56.239Z,20.03
2024-04-01T11:33:56.235Z,20.03
2024-04-01T11:34:56.264Z,20.03
2024-04-01T11:35:56.827Z,20.03
2024-04-01T11:36:56.395Z,20.03
2024-04-01T11:37:56.525Z,20.03
2024-04-01T11:38:56.644Z,20.03
2024-04-01T11:39:56.730Z,20.03
2024-04-01T11:40:56.856Z,20.03
2024-04-01T11:41:56.984Z,20.02
2024-04-01T11:42:57.076Z,20.02
2024-04-01T11:43:57.194Z,20.02
2024-04-01T11:44:57.298Z,20.02
2024-04-01T11:45:57.409Z,20.03
2024-04-01T11:46:57.516Z,20.02
2024-04-01T11:47:57.630Z,20.02
2024-04-01T11:48:57.741Z,20.02
2024-04-01T11:49:57.858Z,20.02
2024-04-01T11:50:57.970Z,20.02
2024-04-01T11:51:58.068Z,20.01
2024-04-01T11:52:58.178Z,20.02
2024-04-01T11:54:19.306Z,20.02
2024-04-01T11:54:58.318Z,19.98
2024-04-01T11:55:58.334Z,19.99
2024-04-01T11:56:58.308Z,20.00
2024-04-01T11:57:58.347Z,20.01
2024-04-01T11:59:03.334Z,20.01
2024-04-01T11:59:58.300Z,20.00
2024-04-01T12:00:58.303Z,20.00
2024-04-01T12:01:58.304Z,20.01
2024-04-01T12:02:58.347Z,20.01
2024-04-01T12:03:58.395Z,20.01
2024-04-01T12:04:58.362Z,20.01
2024-04-01T12:05:58.358Z,20.01
2024-04-01T12:06:58.349Z,20.00
2024-04-01T12:07:58.437Z,20.00
2024-04-01T12:09:03.590Z,20.01
2024-04-01T12:09:58.564Z,20.00
2024-04-01T12:10:58.554Z,20.00
2024-04-01T12:11:58.537Z,20.00
2024-04-01T12:12:58.572Z,19.99
2024-04-01T12:13:58.550Z,20.00
2024-04-01T12:14:58.558Z,20.00
2024-04-01T12:15:58.564Z,19.99
2024-04-01T12:16:58.622Z,20.00
2024-04-01T12:17:58.776Z,19.99
2024-04-01T12:18:58.859Z,19.99
2024-04-01T12:19:58.942Z,19.99
2024-04-01T12:20:59.165Z,20.00
2024-04-01T12:21:59.185Z,19.99
2024-04-01T12:22:59.290Z,19.99
2024-04-01T12:23:59.403Z,20.00
2024-04-01T12:25:01.103Z,19.98
2024-04-01T12:25:59.520Z,19.99
2024-04-01T12:26:59.524Z,19.99
2024-04-01T12:27:59.504Z,19.99
2024-04-01T12:28:59.527Z,19.99
2024-04-01T12:29:59.515Z,19.98
2024-04-01T12:30:59.537Z,19.98
2024-04-01T12:31:59.534Z,19.98
2024-04-01T12:32:59.619Z,19.98
2024-04-01T12:33:59.534Z,19.98
2024-04-01T12:34:59.538Z,19.98
2024-04-01T12:35:59.524Z,19.97
2024-04-01T12:36:59.530Z,19.97
2024-04-01T12:37:59.531Z,19.97
2024-04-01T12:38:59.540Z,19.97
2024-04-01T12:39:59.537Z,19.97
2024-04-01T12:40:59.559Z,19.96
2024-04-01T12:41:59.538Z,19.97
2024-04-01T12:42:59.543Z,19.96
2024-04-01T12:43:59.609Z,19.96
2024-04-01T12:44:59.586Z,19.95
2024-04-01T12:45:59.592Z,19.95
2024-04-01T12:46:59.598Z,19.96
2024-04-01T12:47:59.606Z,19.95
2024-04-01T12:48:59.612Z,19.96
2024-04-01T12:49:59.618Z,19.95
2024-04-01T12:50:59.599Z,19.95
2024-04-01T12:51:59.603Z,19.95
2024-04-01T12:52:59.603Z,19.94
2024-04-01T12:53:59.602Z,19.94